Time;durP1;ratioP1;P1;durP2;ratioP2;P2;SDS_P1;SDS_P2;PMS_P1;PMS_P2;Temp;Humidity;BMP_temperature;BMP_pressure;BME280_temperature;BME280_humidity;BME280_pressure;Samples;Min_cycle;Max_cycle;Signal;HPM_P1;HPM_P2
2022/12/11 00:01:18;;;;;;;;;;;1.50;86.30;;;;;;5045466;28;19979;-75
2022/12/11 00:03:44;;;;;;;;;;;1.50;85.90;;;;;;5037442;28;19921;-77
2022/12/11 00:06:11;;;;;;;;;;;1.50;85.70;;;;;;5060014;28;20385;-77
2022/12/11 00:08:37;;;;;;;;;;;1.30;85.90;;;;;;5040266;28;19913;-76
2022/12/11 00:11:02;;;;;;;;;;;1.30;86.10;;;;;;5028919;28;19920;-76
2022/12/11 00:13:28;;;;;;;;;;;1.30;86.10;;;;;;5047707;28;20296;-77
2022/12/11 00:15:53;;;;;;;;;;;1.10;86.20;;;;;;5047899;28;19912;-74
2022/12/11 00:18:19;;;;;;;;;;;1.10;86.40;;;;;;5038554;28;19932;-76
2022/12/11 00:20:44;;;;;;;;;;;1.10;86.60;;;;;;5032211;28;19917;-76
2022/12/11 00:23:10;;;;;;;;;;;1.10;86.70;;;;;;5030508;28;19913;-76
2022/12/11 00:25:39;;;;;;;;;;;1.10;86.80;;;;;;5039170;28;19913;-76
2022/12/11 00:28:05;;;;;;;;;;;1.10;86.80;;;;;;5022152;28;20356;-76
2022/12/11 00:30:30;;;;;;;;;;;1.20;86.80;;;;;;5050046;28;19919;-77
2022/12/11 00:32:56;;;;;;;;;;;1.10;86.60;;;;;;5033050;28;19939;-77
2022/12/11 00:35:21;;;;;;;;;;;1.00;86.90;;;;;;5033390;28;20325;-76
2022/12/11 00:37:47;;;;;;;;;;;1.00;87.00;;;;;;5028722;28;19992;-76
2022/12/11 00:40:12;;;;;;;;;;;1.00;86.90;;;;;;5041711;28;19917;-76
2022/12/11 00:42:38;;;;;;;;;;;1.00;87.20;;;;;;5026543;28;19948;-76
2022/12/11 00:45:03;;;;;;;;;;;0.90;87.20;;;;;;5035817;28;20399;-76
2022/12/11 00:47:29;;;;;;;;;;;0.90;87.50;;;;;;5029792;28;19959;-76
2022/12/11 00:49:54;;;;;;;;;;;1.00;87.50;;;;;;5032385;28;19914;-75
2022/12/11 00:52:19;;;;;;;;;;;1.00;87.20;;;;;;5043148;28;19913;-75
2022/12/11 00:54:45;;;;;;;;;;;1.10;87.00;;;;;;5030015;28;19991;-76
2022/12/11 00:57:10;;;;;;;;;;;1.00;86.80;;;;;;5064653;22;19928;-76
2022/12/11 00:59:36;;;;;;;;;;;1.00;86.90;;;;;;5055166;28;19921;-79
2022/12/11 01:02:01;;;;;;;;;;;1.00;87.00;;;;;;5048890;28;19928;-78
2022/12/11 01:04:27;;;;;;;;;;;1.00;87.00;;;;;;5058194;28;20366;-77
2022/12/11 01:06:52;;;;;;;;;;;1.00;87.00;;;;;;5050720;28;20405;-79
2022/12/11 01:12:02;;;;;;;;;;;0.80;86.90;;;;;;5053762;28;19959;-79
2022/12/11 01:14:27;;;;;;;;;;;0.90;87.10;;;;;;5052191;28;19921;-77
2022/12/11 01:16:53;;;;;;;;;;;0.90;87.30;;;;;;5057136;28;19912;-79
2022/12/11 01:19:18;;;;;;;;;;;0.90;87.40;;;;;;5059851;28;19921;-78
2022/12/11 01:21:43;;;;;;;;;;;1.00;87.40;;;;;;5055251;28;19905;-77
2022/12/11 01:24:09;;;;;;;;;;;0.90;87.30;;;;;;5053499;28;19971;-78
2022/12/11 01:26:34;;;;;;;;;;;0.90;87.40;;;;;;5064168;28;19913;-79
2022/12/11 01:29:00;;;;;;;;;;;1.00;87.50;;;;;;5052940;28;19920;-78
2022/12/11 01:31:26;;;;;;;;;;;1.10;87.50;;;;;;5051714;28;19969;-78
2022/12/11 01:33:52;;;;;;;;;;;1.10;87.30;;;;;;5052217;28;20106;-77
2022/12/11 01:36:19;;;;;;;;;;;1.20;87.20;;;;;;5051092;28;19913;-78
2022/12/11 01:38:45;;;;;;;;;;;1.20;87.00;;;;;;5053468;28;20310;-78
2022/12/11 01:41:10;;;;;;;;;;;1.20;86.80;;;;;;5052449;28;19962;-78
2022/12/11 01:43:55;;;;;;;;;;;1.20;86.80;;;;;;5050483;28;19920;-79
2022/12/11 01:46:20;;;;;;;;;;;1.20;87.10;;;;;;5051108;28;20381;-77
2022/12/11 01:48:46;;;;;;;;;;;1.30;87.00;;;;;;5054896;28;19974;-78
2022/12/11 01:51:11;;;;;;;;;;;1.20;86.90;;;;;;5053148;28;19913;-78
2022/12/11 01:53:39;;;;;;;;;;;1.30;87.10;;;;;;5051323;28;19964;-78
2022/12/11 01:56:05;;;;;;;;;;;1.30;86.70;;;;;;5052480;28;19960;-77
2022/12/11 01:58:32;;;;;;;;;;;1.20;86.90;;;;;;5047494;28;19917;-77
2022/12/11 02:00:58;;;;;;;;;;;1.20;87.20;;;;;;5052321;28;19913;-77
2022/12/11 02:03:24;;;;;;;;;;;1.30;87.30;;;;;;5050277;28;20354;-77
2022/12/11 02:05:49;;;;;;;;;;;1.20;87.20;;;;;;5051546;28;19966;-76
2022/12/11 02:08:15;;;;;;;;;;;1.30;87.40;;;;;;5053932;28;20282;-77
2022/12/11 02:10:44;;;;;;;;;;;1.30;87.20;;;;;;5053805;28;20309;-78
2022/12/11 02:13:17;;;;;;;;;;;1.30;87.40;;;;;;5072288;28;20001;-77
2022/12/11 02:16:02;;;;;;;;;;;1.30;87.40;;;;;;5057320;28;19913;-77
2022/12/11 02:18:35;;;;;;;;;;;1.30;87.40;;;;;;5067040;28;19920;-79
2022/12/11 02:21:23;;;;;;;;;;;1.30;87.70;;;;;;5050257;28;20018;-78
2022/12/11 02:24:08;;;;;;;;;;;1.30;87.60;;;;;;5046621;28;19913;-78
2022/12/11 02:26:53;;;;;;;;;;;1.30;88.00;;;;;;5005735;28;19912;-78
2022/12/11 02:29:21;;;;;;;;;;;1.30;88.00;;;;;;5050588;28;19923;-79
2022/12/11 02:31:57;;;;;;;;;;;1.40;88.30;;;;;;5059964;28;20050;-78
2022/12/11 02:34:42;;;;;;;;;;;1.50;87.90;;;;;;5068158;28;19920;-79
2022/12/11 02:37:09;;;;;;;;;;;1.40;87.70;;;;;;5056398;28;20551;-78
2022/12/11 02:39:37;;;;;;;;;;;1.40;88.00;;;;;;5050737;28;19917;-77
2022/12/11 02:42:03;;;;;;;;;;;1.40;87.90;;;;;;5047767;28;20063;-78
2022/12/11 02:44:31;;;;;;;;;;;1.30;87.90;;;;;;5055105;28;20069;-76
2022/12/11 02:46:57;;;;;;;;;;;1.30;88.10;;;;;;5049055;28;19912;-78
2022/12/11 02:49:23;;;;;;;;;;;1.30;88.00;;;;;;5050933;28;19921;-78
2022/12/11 02:51:49;;;;;;;;;;;1.40;88.10;;;;;;5051479;28;20450;-77
2022/12/11 02:54:24;;;;;;;;;;;1.30;88.00;;;;;;5047667;28;19917;-77
2022/12/11 02:56:51;;;;;;;;;;;1.30;88.40;;;;;;5048940;28;20332;-78
2022/12/11 02:59:19;;;;;;;;;;;1.40;88.20;;;;;;5056962;28;19920;-79
2022/12/11 03:01:45;;;;;;;;;;;1.40;88.30;;;;;;5051518;28;19916;-78
2022/12/11 03:04:10;;;;;;;;;;;1.40;87.80;;;;;;5050711;28;19970;-77
2022/12/11 03:06:38;;;;;;;;;;;1.50;87.70;;;;;;5050707;28;20371;-78
2022/12/11 03:09:04;;;;;;;;;;;1.40;88.00;;;;;;5050910;28;19958;-79
2022/12/11 03:11:30;;;;;;;;;;;1.40;88.00;;;;;;5054226;28;19912;-77
2022/12/11 03:13:55;;;;;;;;;;;1.40;87.90;;;;;;5053646;28;19919;-78
2022/12/11 03:16:21;;;;;;;;;;;1.40;87.90;;;;;;5063035;28;19913;-77
2022/12/11 03:18:55;;;;;;;;;;;1.50;88.00;;;;;;5072380;28;19928;-76
2022/12/11 03:21:47;;;;;;;;;;;1.60;87.80;;;;;;5059112;28;20216;-79
2022/12/11 03:24:21;;;;;;;;;;;1.60;87.50;;;;;;5052382;28;19917;-78
2022/12/11 03:26:53;;;;;;;;;;;1.60;87.20;;;;;;5052896;28;19945;-79
2022/12/11 03:29:22;;;;;;;;;;;1.60;87.20;;;;;;5057570;28;19919;-79
2022/12/11 03:32:05;;;;;;;;;;;1.60;87.30;;;;;;5055173;28;19913;-79
2022/12/11 03:34:42;;;;;;;;;;;1.60;87.00;;;;;;5058114;28;19917;-78
2022/12/11 03:37:07;;;;;;;;;;;1.60;87.10;;;;;;5055756;28;20011;-78
2022/12/11 03:39:36;;;;;;;;;;;1.60;87.20;;;;;;5052825;28;19952;-78
2022/12/11 03:42:04;;;;;;;;;;;1.60;87.10;;;;;;5053621;28;19939;-77
2022/12/11 03:44:31;;;;;;;;;;;1.60;87.00;;;;;;5050230;28;19952;-78
2022/12/11 03:46:57;;;;;;;;;;;1.60;87.10;;;;;;5052816;28;19913;-78
2022/12/11 03:49:25;;;;;;;;;;;1.60;87.10;;;;;;5054521;28;19916;-76
2022/12/11 03:51:52;;;;;;;;;;;1.60;86.60;;;;;;5052839;28;19924;-77
2022/12/11 03:54:18;;;;;;;;;;;1.60;86.40;;;;;;5055412;28;20068;-77
2022/12/11 03:56:44;;;;;;;;;;;1.60;86.30;;;;;;5051803;28;20349;-77
2022/12/11 03:59:10;;;;;;;;;;;1.60;86.00;;;;;;5052949;28;19951;-78
2022/12/11 04:01:35;;;;;;;;;;;1.60;85.90;;;;;;5049802;28;19968;-76
2022/12/11 04:04:01;;;;;;;;;;;1.50;85.60;;;;;;5053018;28;19955;-78
2022/12/11 04:06:26;;;;;;;;;;;1.50;86.00;;;;;;5064340;28;19916;-79
2022/12/11 04:08:52;;;;;;;;;;;1.50;86.00;;;;;;5053542;28;20433;-78
2022/12/11 04:11:35;;;;;;;;;;;1.50;85.70;;;;;;5052073;28;19913;-78
2022/12/11 04:16:46;;;;;;;;;;;1.40;85.70;;;;;;5058465;28;19965;-77
2022/12/11 04:24:40;;;;;;;;;;;1.40;85.50;;;;;;5049584;28;20011;-78
2022/12/11 04:27:05;;;;;;;;;;;1.50;85.80;;;;;;5051633;28;20434;-77
2022/12/11 04:29:30;;;;;;;;;;;1.60;85.50;;;;;;5055534;28;19919;-77
2022/12/11 04:31:56;;;;;;;;;;;1.60;85.40;;;;;;5056355;28;19912;-76
2022/12/11 04:34:21;;;;;;;;;;;1.60;85.50;;;;;;5051378;28;20000;-77
2022/12/11 04:36:47;;;;;;;;;;;1.60;85.30;;;;;;5057043;28;19951;-77
2022/12/11 04:39:12;;;;;;;;;;;1.60;85.40;;;;;;5061021;28;19917;-75
2022/12/11 04:41:38;;;;;;;;;;;1.70;85.30;;;;;;5062192;28;19917;-78
2022/12/11 04:44:04;;;;;;;;;;;1.60;85.30;;;;;;5057976;28;19921;-78
2022/12/11 04:46:29;;;;;;;;;;;1.60;85.70;;;;;;5052254;28;19919;-77
2022/12/11 04:48:55;;;;;;;;;;;1.60;85.70;;;;;;5050906;28;20374;-77
2022/12/11 04:51:21;;;;;;;;;;;1.70;85.60;;;;;;5053677;28;19917;-78
2022/12/11 04:53:46;;;;;;;;;;;1.70;85.30;;;;;;5061160;28;19912;-78
2022/12/11 04:56:13;;;;;;;;;;;1.70;85.40;;;;;;5059414;28;19919;-78
2022/12/11 04:58:39;;;;;;;;;;;1.70;85.30;;;;;;5050863;28;19959;-79
2022/12/11 05:01:06;;;;;;;;;;;1.70;85.10;;;;;;5053694;28;20003;-77
2022/12/11 05:03:31;;;;;;;;;;;1.60;85.20;;;;;;5050535;28;19917;-77
2022/12/11 05:05:56;;;;;;;;;;;1.60;85.40;;;;;;5051229;28;20454;-78
2022/12/11 05:08:22;;;;;;;;;;;1.60;85.60;;;;;;5051438;28;19917;-78
2022/12/11 05:11:01;;;;;;;;;;;1.70;85.70;;;;;;5055236;28;19912;-77
2022/12/11 05:13:27;;;;;;;;;;;1.70;85.50;;;;;;5051885;28;19919;-78
2022/12/11 05:15:53;;;;;;;;;;;1.70;85.30;;;;;;5058024;28;19954;-77
2022/12/11 05:18:18;;;;;;;;;;;1.70;85.30;;;;;;5055888;28;21647;-77
2022/12/11 05:20:44;;;;;;;;;;;1.70;85.00;;;;;;5057406;28;19974;-76
2022/12/11 05:23:09;;;;;;;;;;;1.60;85.10;;;;;;5052972;28;19921;-77
2022/12/11 05:25:35;;;;;;;;;;;1.60;85.10;;;;;;5055068;28;19916;-77
2022/12/11 05:28:00;;;;;;;;;;;1.70;85.40;;;;;;5055162;28;19913;-76
2022/12/11 05:30:26;;;;;;;;;;;1.70;85.40;;;;;;5057623;28;19919;-76
2022/12/11 05:32:51;;;;;;;;;;;1.80;85.40;;;;;;5058638;28;19913;-76
2022/12/11 05:35:17;;;;;;;;;;;1.90;85.50;;;;;;5067664;28;19921;-74
2022/12/11 05:37:42;;;;;;;;;;;1.80;85.50;;;;;;5051347;28;19913;-78
2022/12/11 05:40:08;;;;;;;;;;;1.80;85.50;;;;;;5050928;28;19966;-77
2022/12/11 05:42:34;;;;;;;;;;;1.80;85.60;;;;;;5060500;28;20042;-75
2022/12/11 05:44:59;;;;;;;;;;;1.80;85.60;;;;;;5057845;28;19917;-76
2022/12/11 05:47:24;;;;;;;;;;;1.80;85.60;;;;;;5050585;28;20044;-78
2022/12/11 05:49:50;;;;;;;;;;;1.80;85.20;;;;;;5057573;28;19940;-77
2022/12/11 05:52:16;;;;;;;;;;;1.70;85.30;;;;;;5051225;28;20046;-78
2022/12/11 05:54:41;;;;;;;;;;;1.80;85.70;;;;;;5054076;28;19909;-78
2022/12/11 05:57:07;;;;;;;;;;;1.90;85.30;;;;;;5047191;28;19917;-77
2022/12/11 05:59:32;;;;;;;;;;;1.80;85.20;;;;;;5062193;28;20008;-77
2022/12/11 06:01:57;;;;;;;;;;;1.90;85.20;;;;;;5048019;28;19953;-77
2022/12/11 06:04:23;;;;;;;;;;;1.80;85.30;;;;;;5054383;28;19928;-76
2022/12/11 06:06:48;;;;;;;;;;;1.80;85.30;;;;;;5051066;28;19916;-76
2022/12/11 06:09:14;;;;;;;;;;;1.80;85.20;;;;;;5058982;28;19957;-76
2022/12/11 06:11:40;;;;;;;;;;;1.70;85.30;;;;;;5048911;28;20007;-77
2022/12/11 06:14:05;;;;;;;;;;;1.70;85.40;;;;;;5042960;28;20001;-76
2022/12/11 06:16:31;;;;;;;;;;;1.90;85.20;;;;;;5047172;28;20005;-76
2022/12/11 06:18:57;;;;;;;;;;;1.90;85.10;;;;;;5050963;28;19936;-76
2022/12/11 06:21:26;;;;;;;;;;;2.00;85.20;;;;;;5049933;28;19995;-77
2022/12/11 06:23:53;;;;;;;;;;;1.90;85.10;;;;;;5062000;28;19912;-77
2022/12/11 06:26:18;;;;;;;;;;;1.80;85.30;;;;;;5048669;28;19913;-75
2022/12/11 06:28:44;;;;;;;;;;;1.80;85.50;;;;;;5062795;28;20289;-76
2022/12/11 06:31:10;;;;;;;;;;;1.80;85.50;;;;;;5059718;28;19967;-77
2022/12/11 06:33:35;;;;;;;;;;;2.00;85.40;;;;;;5052296;28;20356;-77
2022/12/11 06:36:02;;;;;;;;;;;1.90;85.10;;;;;;5045396;28;20007;-76
2022/12/11 06:38:27;;;;;;;;;;;1.90;85.20;;;;;;5064051;28;19917;-76
2022/12/11 06:40:54;;;;;;;;;;;1.90;85.10;;;;;;5045690;28;19917;-76
2022/12/11 06:43:20;;;;;;;;;;;1.90;85.30;;;;;;5061524;28;20323;-77
2022/12/11 06:45:45;;;;;;;;;;;2.00;85.00;;;;;;5059265;28;19917;-75
2022/12/11 06:48:10;;;;;;;;;;;2.00;84.80;;;;;;5050576;28;20350;-76
2022/12/11 06:50:37;;;;;;;;;;;2.00;84.60;;;;;;5055551;28;19995;-74
2022/12/11 06:53:02;;;;;;;;;;;2.00;84.40;;;;;;5052113;28;19913;-77
2022/12/11 06:55:27;;;;;;;;;;;2.00;84.40;;;;;;5057267;28;19977;-77
2022/12/11 06:57:53;;;;;;;;;;;1.90;84.50;;;;;;5077546;22;19929;-79
2022/12/11 07:00:18;;;;;;;;;;;2.00;84.50;;;;;;5052081;28;20251;-78
2022/12/11 07:02:44;;;;;;;;;;;2.00;84.30;;;;;;5048792;28;19924;-78
2022/12/11 07:05:09;;;;;;;;;;;1.90;84.00;;;;;;5051695;28;19913;-79
2022/12/11 07:07:35;;;;;;;;;;;2.00;83.80;;;;;;5049438;28;19913;-78
2022/12/11 07:10:00;;;;;;;;;;;1.90;83.70;;;;;;5051620;28;20419;-79
2022/12/11 07:12:26;;;;;;;;;;;1.90;83.90;;;;;;5046380;28;19917;-79
2022/12/11 07:14:51;;;;;;;;;;;1.90;84.30;;;;;;5047332;28;20008;-79
2022/12/11 07:17:17;;;;;;;;;;;1.90;84.40;;;;;;5043769;28;19984;-78
2022/12/11 07:19:42;;;;;;;;;;;2.00;84.40;;;;;;5050675;28;19966;-79
2022/12/11 07:22:07;;;;;;;;;;;2.10;84.70;;;;;;5049118;28;20387;-78
2022/12/11 07:24:33;;;;;;;;;;;2.10;84.60;;;;;;5050072;28;20044;-79
2022/12/11 07:26:58;;;;;;;;;;;2.10;84.70;;;;;;5046779;28;20009;-79
2022/12/11 07:29:32;;;;;;;;;;;2.00;84.60;;;;;;5049281;28;19913;-80
2022/12/11 07:31:58;;;;;;;;;;;1.90;84.50;;;;;;5053282;28;19913;-79
2022/12/11 07:34:23;;;;;;;;;;;1.90;84.70;;;;;;5051180;28;19966;-79
2022/12/11 07:36:49;;;;;;;;;;;2.00;84.60;;;;;;5045727;28;20012;-79
2022/12/11 07:39:14;;;;;;;;;;;2.10;84.30;;;;;;5036985;28;19913;-78
2022/12/11 07:41:40;;;;;;;;;;;2.10;84.00;;;;;;5041779;28;19924;-79
2022/12/11 07:44:05;;;;;;;;;;;2.10;83.90;;;;;;5046826;28;19921;-79
2022/12/11 07:46:32;;;;;;;;;;;2.10;83.80;;;;;;5048902;28;19928;-79
2022/12/11 07:48:59;;;;;;;;;;;2.10;84.20;;;;;;5040221;28;20430;-78
2022/12/11 07:51:29;;;;;;;;;;;2.10;84.10;;;;;;5040123;28;19921;-79
2022/12/11 07:53:57;;;;;;;;;;;2.10;83.80;;;;;;5054497;28;19983;-78
2022/12/11 07:56:22;;;;;;;;;;;2.10;83.90;;;;;;5039774;28;19944;-79
2022/12/11 07:58:48;;;;;;;;;;;2.00;83.80;;;;;;5049334;28;19923;-79
2022/12/11 08:01:15;;;;;;;;;;;2.10;83.80;;;;;;5052209;28;19917;-79
2022/12/11 08:03:41;;;;;;;;;;;2.10;83.90;;;;;;5050142;28;20346;-83
2022/12/11 08:06:06;;;;;;;;;;;2.10;83.60;;;;;;5043859;28;19917;-79
2022/12/11 08:08:32;;;;;;;;;;;2.20;83.30;;;;;;5051449;28;19916;-79
2022/12/11 08:11:04;;;;;;;;;;;2.20;82.80;;;;;;5053970;28;20003;-79
2022/12/11 08:13:30;;;;;;;;;;;2.20;82.80;;;;;;5038021;28;19923;-78
2022/12/11 08:15:55;;;;;;;;;;;2.20;82.70;;;;;;5041185;28;19913;-78
2022/12/11 08:18:21;;;;;;;;;;;2.10;83.00;;;;;;5045920;28;19917;-79
2022/12/11 08:20:46;;;;;;;;;;;2.00;83.00;;;;;;5031260;28;19928;-78
2022/12/11 08:23:12;;;;;;;;;;;2.00;83.50;;;;;;5046604;28;19924;-78
2022/12/11 08:25:37;;;;;;;;;;;2.10;82.70;;;;;;5035344;28;19917;-78
2022/12/11 08:28:03;;;;;;;;;;;2.10;81.90;;;;;;5037283;28;19917;-77
2022/12/11 08:30:28;;;;;;;;;;;2.10;81.70;;;;;;5049390;28;19944;-78
2022/12/11 08:32:54;;;;;;;;;;;2.10;81.70;;;;;;5053374;22;19948;-91
2022/12/11 08:35:19;;;;;;;;;;;1.90;82.20;;;;;;5032981;28;19913;-88
2022/12/11 08:37:45;;;;;;;;;;;1.90;82.90;;;;;;5031419;28;19948;-88
2022/12/11 08:40:11;;;;;;;;;;;2.00;82.90;;;;;;5009966;28;19920;-84
2022/12/11 08:42:36;;;;;;;;;;;2.10;82.90;;;;;;5016773;28;19940;-85
2022/12/11 08:45:02;;;;;;;;;;;2.10;82.90;;;;;;5020898;28;19984;-85
2022/12/11 08:47:28;;;;;;;;;;;2.10;82.50;;;;;;5016322;28;19913;-85
2022/12/11 08:49:53;;;;;;;;;;;2.20;82.30;;;;;;5016756;28;19909;-86
2022/12/11 08:52:19;;;;;;;;;;;2.10;82.10;;;;;;5013308;28;19999;-85
2022/12/11 08:54:44;;;;;;;;;;;2.20;82.00;;;;;;5021320;28;19909;-85
2022/12/11 08:57:10;;;;;;;;;;;2.20;81.80;;;;;;5015814;28;19914;-86
2022/12/11 08:59:35;;;;;;;;;;;2.30;82.00;;;;;;5028189;28;19914;-85
2022/12/11 09:02:00;;;;;;;;;;;2.30;81.70;;;;;;5012244;28;20644;-85
2022/12/11 09:04:26;;;;;;;;;;;2.20;81.00;;;;;;5027559;28;19967;-87
2022/12/11 09:06:51;;;;;;;;;;;2.30;81.30;;;;;;5036845;28;19913;-88
2022/12/11 09:09:17;;;;;;;;;;;2.30;81.20;;;;;;5041461;28;20192;-87
2022/12/11 09:11:43;;;;;;;;;;;2.30;81.60;;;;;;5044531;28;19913;-85
2022/12/11 09:14:08;;;;;;;;;;;2.30;81.40;;;;;;5025223;28;19967;-85
2022/12/11 09:16:36;;;;;;;;;;;2.30;81.40;;;;;;5017060;28;19919;-85
2022/12/11 09:19:02;;;;;;;;;;;2.40;81.50;;;;;;5023050;28;19920;-85
2022/12/11 09:21:28;;;;;;;;;;;2.40;81.40;;;;;;5034841;28;19917;-85
2022/12/11 09:23:55;;;;;;;;;;;2.40;81.70;;;;;;5026806;28;19944;-86
2022/12/11 09:26:20;;;;;;;;;;;2.30;82.30;;;;;;5031980;28;19914;-85
2022/12/11 09:28:46;;;;;;;;;;;2.40;82.50;;;;;;5027799;28;19924;-84
2022/12/11 09:31:17;;;;;;;;;;;2.40;82.30;;;;;;5011143;28;19917;-86
2022/12/11 09:33:42;;;;;;;;;;;2.30;82.60;;;;;;5015529;28;19979;-85
2022/12/11 09:36:08;;;;;;;;;;;2.30;82.30;;;;;;5006154;28;20371;-86
2022/12/11 09:38:35;;;;;;;;;;;2.30;82.70;;;;;;5010758;28;19920;-87
2022/12/11 09:41:01;;;;;;;;;;;2.30;82.30;;;;;;5009916;28;20009;-87
2022/12/11 09:43:32;;;;;;;;;;;2.40;82.00;;;;;;5018978;28;20007;-86
2022/12/11 09:45:59;;;;;;;;;;;2.30;82.20;;;;;;5007081;28;19917;-87
2022/12/11 09:48:25;;;;;;;;;;;2.20;82.80;;;;;;5010896;28;19917;-86
2022/12/11 09:50:52;;;;;;;;;;;2.30;82.90;;;;;;5018131;28;19957;-87
2022/12/11 09:53:21;;;;;;;;;;;2.30;83.30;;;;;;5013893;28;19913;-86
2022/12/11 09:55:54;;;;;;;;;;;2.20;83.00;;;;;;5034379;28;19947;-87
2022/12/11 09:58:32;;;;;;;;;;;2.30;82.70;;;;;;5011637;28;19910;-86
2022/12/11 10:00:57;;;;;;;;;;;2.30;81.90;;;;;;5023775;28;19917;-87
2022/12/11 10:03:23;;;;;;;;;;;2.40;82.10;;;;;;5028029;28;19941;-87
2022/12/11 10:05:48;;;;;;;;;;;2.20;82.30;;;;;;5009806;28;19913;-86
2022/12/11 10:08:43;;;;;;;;;;;2.30;82.90;;;;;;5010994;28;19920;-88
2022/12/11 10:11:27;;;;;;;;;;;2.30;82.80;;;;;;5011157;28;19913;-86
2022/12/11 10:13:57;;;;;;;;;;;2.30;82.30;;;;;;5019626;28;20029;-86
2022/12/11 10:16:32;;;;;;;;;;;2.40;82.40;;;;;;5020239;28;19921;-86
2022/12/11 10:18:58;;;;;;;;;;;2.50;82.00;;;;;;5010927;28;20007;-88
2022/12/11 10:21:25;;;;;;;;;;;2.50;82.40;;;;;;5010109;28;20024;-89
2022/12/11 10:23:57;;;;;;;;;;;2.60;82.00;;;;;;5012901;28;19924;-86
2022/12/11 10:26:23;;;;;;;;;;;2.50;81.90;;;;;;5007219;28;19920;-86
2022/12/11 10:28:59;;;;;;;;;;;2.40;81.70;;;;;;5007046;28;19909;-87
2022/12/11 10:31:45;;;;;;;;;;;2.40;81.50;;;;;;5014073;28;19932;-86
2022/12/11 10:34:12;;;;;;;;;;;2.40;81.60;;;;;;5008001;28;19971;-88
2022/12/11 10:36:38;;;;;;;;;;;2.40;81.70;;;;;;5007150;28;19914;-87
2022/12/11 10:39:33;;;;;;;;;;;2.30;82.00;;;;;;5012558;28;19909;-86
2022/12/11 10:41:59;;;;;;;;;;;2.30;82.30;;;;;;4992666;28;20398;-87
2022/12/11 10:44:26;;;;;;;;;;;2.30;82.30;;;;;;5031582;28;19921;-86
2022/12/11 10:47:02;;;;;;;;;;;2.30;82.20;;;;;;5009039;28;19914;-85
2022/12/11 10:49:31;;;;;;;;;;;2.20;82.30;;;;;;5030534;28;19925;-88
2022/12/11 10:52:00;;;;;;;;;;;2.20;82.00;;;;;;5005831;28;20288;-86
2022/12/11 10:55:01;;;;;;;;;;;2.20;82.20;;;;;;5016459;28;20007;-86
2022/12/11 10:57:28;;;;;;;;;;;2.30;82.00;;;;;;5013866;28;20298;-88
2022/12/11 10:59:54;;;;;;;;;;;2.30;82.00;;;;;;5020489;28;19913;-90
2022/12/11 11:02:26;;;;;;;;;;;2.40;82.10;;;;;;5022102;28;19924;-88
2022/12/11 11:04:52;;;;;;;;;;;2.50;81.80;;;;;;5013512;28;21097;-89
2022/12/11 11:07:22;;;;;;;;;;;2.50;80.70;;;;;;5020846;28;19909;-87
2022/12/11 11:09:49;;;;;;;;;;;2.30;80.60;;;;;;5011745;28;20304;-91
2022/12/11 11:12:17;;;;;;;;;;;2.40;80.70;;;;;;5008774;28;20016;-89
2022/12/11 11:14:42;;;;;;;;;;;2.40;81.50;;;;;;5010808;28;19917;-93
2022/12/11 11:17:15;;;;;;;;;;;2.40;81.70;;;;;;5021618;28;20272;-90
2022/12/11 11:19:45;;;;;;;;;;;2.40;81.70;;;;;;5009940;28;19940;-91
2022/12/11 11:22:16;;;;;;;;;;;2.50;81.40;;;;;;5012098;28;20027;-89
2022/12/11 11:24:54;;;;;;;;;;;2.40;80.90;;;;;;5010607;28;19913;-86
2022/12/11 11:27:19;;;;;;;;;;;2.50;80.40;;;;;;5009628;28;19918;-88
2022/12/11 11:29:45;;;;;;;;;;;2.30;80.40;;;;;;5018822;28;19920;-87
2022/12/11 11:32:19;;;;;;;;;;;2.30;80.70;;;;;;5022089;28;20011;-88
2022/12/11 11:34:47;;;;;;;;;;;2.40;80.70;;;;;;5014727;28;19906;-88
2022/12/11 11:37:21;;;;;;;;;;;2.30;80.30;;;;;;5032185;28;20016;-86
2022/12/11 11:39:47;;;;;;;;;;;2.40;80.10;;;;;;5028371;28;20330;-86
2022/12/11 11:42:19;;;;;;;;;;;2.40;80.20;;;;;;5022252;28;19925;-88
2022/12/11 11:44:56;;;;;;;;;;;2.40;80.20;;;;;;5035569;28;19913;-87
2022/12/11 11:47:25;;;;;;;;;;;2.50;79.60;;;;;;5020404;28;19929;-90
2022/12/11 11:50:04;;;;;;;;;;;2.40;80.10;;;;;;5013874;28;20052;-89
2022/12/11 11:52:49;;;;;;;;;;;2.40;79.20;;;;;;5008012;28;19921;-89
2022/12/11 11:55:24;;;;;;;;;;;2.50;79.20;;;;;;5027893;28;19917;-87
2022/12/11 11:58:04;;;;;;;;;;;2.50;79.10;;;;;;5013485;28;20387;-87
2022/12/11 12:00:30;;;;;;;;;;;2.50;79.00;;;;;;5005090;28;20378;-88
2022/12/11 12:03:00;;;;;;;;;;;2.50;78.90;;;;;;5009307;28;19944;-89
2022/12/11 12:05:33;;;;;;;;;;;2.60;78.30;;;;;;5018746;28;20036;-89
2022/12/11 12:08:11;;;;;;;;;;;2.50;78.90;;;;;;5010692;28;20332;-88
2022/12/11 12:10:42;;;;;;;;;;;2.50;78.80;;;;;;5000998;28;20383;-87
2022/12/11 12:13:26;;;;;;;;;;;2.50;79.00;;;;;;5006997;28;19975;-88
2022/12/11 12:15:51;;;;;;;;;;;2.40;79.10;;;;;;5010670;28;19928;-88
2022/12/11 12:18:27;;;;;;;;;;;2.30;79.60;;;;;;5015335;28;20579;-87
2022/12/11 12:21:02;;;;;;;;;;;2.40;79.60;;;;;;5011058;28;20236;-88
2022/12/11 12:23:45;;;;;;;;;;;2.50;79.50;;;;;;5018955;28;19928;-88
2022/12/11 12:26:26;;;;;;;;;;;2.40;79.60;;;;;;5008857;28;19941;-88
2022/12/11 12:28:56;;;;;;;;;;;2.30;80.00;;;;;;5009249;28;19914;-87
2022/12/11 12:31:36;;;;;;;;;;;2.40;79.90;;;;;;5007179;28;19913;-88
2022/12/11 12:34:20;;;;;;;;;;;2.50;79.80;;;;;;5005334;28;20008;-87
2022/12/11 12:36:59;;;;;;;;;;;2.40;80.00;;;;;;5012623;28;20000;-87
2022/12/11 12:39:33;;;;;;;;;;;2.40;80.30;;;;;;5020623;28;19928;-86
2022/12/11 12:42:18;;;;;;;;;;;2.50;80.60;;;;;;5003783;28;19921;-88
2022/12/11 12:44:49;;;;;;;;;;;2.50;80.20;;;;;;5014463;28;19964;-87
2022/12/11 12:47:16;;;;;;;;;;;2.40;80.40;;;;;;5012498;28;19914;-88
2022/12/11 12:49:44;;;;;;;;;;;2.50;80.00;;;;;;5027693;28;20330;-86
2022/12/11 12:52:15;;;;;;;;;;;2.60;80.10;;;;;;5017153;28;20405;-87
2022/12/11 12:55:13;;;;;;;;;;;2.60;80.00;;;;;;5007994;28;19922;-90
2022/12/11 12:57:47;;;;;;;;;;;2.50;80.20;;;;;;5117657;22;19924;-81
2022/12/11 13:00:24;;;;;;;;;;;2.50;79.80;;;;;;5081121;28;19931;-78
2022/12/11 13:02:50;;;;;;;;;;;2.60;79.60;;;;;;5072292;28;21766;-80
2022/12/11 13:05:26;;;;;;;;;;;2.50;79.60;;;;;;5065488;28;20124;-80
2022/12/11 13:07:56;;;;;;;;;;;2.60;79.90;;;;;;5060834;28;19924;-80
2022/12/11 13:10:23;;;;;;;;;;;2.60;79.50;;;;;;5057227;28;19913;-81
2022/12/11 13:12:48;;;;;;;;;;;2.60;79.60;;;;;;5074354;28;20307;-81
2022/12/11 13:15:25;;;;;;;;;;;2.60;79.20;;;;;;5058868;28;19913;-81
2022/12/11 13:17:50;;;;;;;;;;;2.60;79.80;;;;;;5058678;28;19988;-81
2022/12/11 13:20:17;;;;;;;;;;;2.60;79.90;;;;;;5053845;28;20004;-81
2022/12/11 13:23:06;;;;;;;;;;;2.70;80.00;;;;;;5069213;28;19952;-80
2022/12/11 13:25:44;;;;;;;;;;;2.60;79.50;;;;;;5053530;28;19966;-80
2022/12/11 13:28:23;;;;;;;;;;;2.70;79.60;;;;;;5052133;28;19971;-80
2022/12/11 13:30:59;;;;;;;;;;;2.60;79.60;;;;;;5073457;28;19920;-80
2022/12/11 13:33:25;;;;;;;;;;;2.60;79.20;;;;;;5074685;28;19928;-79
2022/12/11 13:36:03;;;;;;;;;;;2.60;79.50;;;;;;5057223;28;20042;-82
2022/12/11 13:38:29;;;;;;;;;;;2.60;79.60;;;;;;5061407;28;19919;-81
2022/12/11 13:40:55;;;;;;;;;;;2.70;79.20;;;;;;5055516;28;19912;-81
2022/12/11 13:43:25;;;;;;;;;;;2.70;79.00;;;;;;5065041;28;19917;-80
2022/12/11 13:45:56;;;;;;;;;;;2.70;78.80;;;;;;5070206;28;19927;-80
2022/12/11 13:48:21;;;;;;;;;;;2.60;78.60;;;;;;5059866;28;20414;-81
2022/12/11 13:50:48;;;;;;;;;;;2.40;78.80;;;;;;5060326;28;19947;-79
2022/12/11 13:53:14;;;;;;;;;;;2.30;79.40;;;;;;5086429;28;19916;-76
2022/12/11 13:55:40;;;;;;;;;;;2.50;79.10;;;;;;5092966;28;19900;-76
2022/12/11 13:58:18;;;;;;;;;;;2.60;79.30;;;;;;5089890;28;19980;-74
2022/12/11 14:00:53;;;;;;;;;;;2.50;79.00;;;;;;5099323;28;19901;-74
2022/12/11 14:03:18;;;;;;;;;;;2.50;78.80;;;;;;5085880;28;19913;-75
2022/12/11 14:05:43;;;;;;;;;;;2.60;78.70;;;;;;5081622;28;19912;-75
2022/12/11 14:08:09;;;;;;;;;;;2.60;78.50;;;;;;5089271;28;19900;-74
2022/12/11 14:10:35;;;;;;;;;;;2.70;78.90;;;;;;5083289;28;19916;-74
2022/12/11 14:13:02;;;;;;;;;;;2.70;79.00;;;;;;5090094;28;19921;-75
2022/12/11 14:15:29;;;;;;;;;;;2.60;78.90;;;;;;5088577;28;19905;-74
2022/12/11 14:17:55;;;;;;;;;;;2.70;79.40;;;;;;5084877;28;19960;-74
2022/12/11 14:20:26;;;;;;;;;;;2.60;79.10;;;;;;5085872;28;19982;-76
2022/12/11 14:23:02;;;;;;;;;;;2.60;79.30;;;;;;5071360;28;19920;-76
2022/12/11 14:25:28;;;;;;;;;;;2.70;79.20;;;;;;5064129;28;19919;-76
2022/12/11 14:27:55;;;;;;;;;;;2.70;79.00;;;;;;5061567;28;20333;-76
2022/12/11 14:30:25;;;;;;;;;;;2.80;79.10;;;;;;5058234;28;19913;-76
2022/12/11 14:32:54;;;;;;;;;;;2.60;79.00;;;;;;5055686;28;19917;-76
2022/12/11 14:35:22;;;;;;;;;;;2.60;79.20;;;;;;5056929;28;19924;-76
2022/12/11 14:37:48;;;;;;;;;;;2.40;79.40;;;;;;5059729;28;19916;-75
2022/12/11 14:40:16;;;;;;;;;;;2.40;79.90;;;;;;5057853;28;20041;-77
2022/12/11 14:42:45;;;;;;;;;;;2.50;79.70;;;;;;5057613;28;19931;-78
2022/12/11 14:45:23;;;;;;;;;;;2.60;79.30;;;;;;5061666;28;20331;-78
2022/12/11 14:47:49;;;;;;;;;;;2.60;78.90;;;;;;5058297;28;19979;-78
2022/12/11 14:50:20;;;;;;;;;;;2.70;79.20;;;;;;5066517;28;19963;-76